createdAt,value
2017-04-14T00:00:32.129Z,0
2017-04-14T00:01:32.454Z,0
2017-04-14T00:02:33.057Z,0
2017-04-14T00:03:32.840Z,0
2017-04-14T00:04:32.240Z,0
2017-04-14T00:05:32.597Z,0
2017-04-14T00:06:31.966Z,0
2017-04-14T00:07:33.187Z,0
2017-04-14T00:08:32.336Z,0
2017-04-14T00:09:32.689Z,0
2017-04-14T00:10:33.030Z,0
2017-04-14T00:11:33.051Z,0
2017-04-14T00:12:33.379Z,0
2017-04-14T00:13:32.799Z,0
2017-04-14T00:14:33.143Z,0
2017-04-14T00:15:33.154Z,0
2017-04-14T00:16:33.189Z,0
2017-04-14T00:17:32.895Z,0
2017-04-14T00:18:33.173Z,0
2017-04-14T00:19:32.645Z,0
2017-04-14T00:20:32.978Z,0
2017-04-14T00:21:33.379Z,0
2017-04-14T00:22:33.347Z,0
2017-04-14T00:23:33.325Z,0
2017-04-14T00:24:33.413Z,0
2017-04-14T00:25:33.437Z,0
2017-04-14T00:26:33.150Z,0
2017-04-14T00:27:33.480Z,0
2017-04-14T00:28:33.138Z,0
2017-04-14T00:29:33.229Z,0
2017-04-14T00:30:33.246Z,0
2017-04-14T00:31:33.590Z,0
2017-04-14T00:32:32.995Z,0
2017-04-14T00:33:33.903Z,0
2017-04-14T00:34:33.682Z,0
2017-04-14T00:35:33.705Z,0
2017-04-14T00:36:33.415Z,0
2017-04-14T00:37:33.755Z,0
2017-04-14T00:38:33.727Z,0
2017-04-14T00:39:33.813Z,0
2017-04-14T00:40:33.837Z,0
2017-04-14T00:41:32.930Z,0
2017-04-14T00:42:32.951Z,0
2017-04-14T00:43:33.241Z,0
2017-04-14T00:44:33.948Z,0
2017-04-14T00:45:33.704Z,0
2017-04-14T00:46:34.006Z,0
2017-04-14T00:47:34.091Z,0
2017-04-14T00:48:34.003Z,0
2017-04-14T00:49:34.088Z,0
2017-04-14T00:50:34.116Z,0
2017-04-14T00:51:33.833Z,0
2017-04-14T00:52:33.851Z,0
2017-04-14T00:53:34.135Z,0
2017-04-14T00:54:34.229Z,0
2017-04-14T00:55:34.241Z,0
2017-04-14T00:56:33.966Z,0
2017-04-14T00:57:34.309Z,0
2017-04-14T00:58:34.272Z,0
2017-04-14T00:59:34.040Z,0
2017-04-14T01:00:33.764Z,0
2017-04-14T01:01:34.097Z,0
2017-04-14T01:02:34.441Z,0
2017-04-14T01:03:34.718Z,0
2017-04-14T01:04:34.495Z,0
2017-04-14T01:05:34.521Z,0
2017-04-14T01:06:34.552Z,0
2017-04-14T01:07:34.267Z,0
2017-04-14T01:08:34.547Z,0
2017-04-14T01:09:34.631Z,0
2017-04-14T01:10:34.648Z,0
2017-04-14T01:11:34.065Z,0
2017-04-14T01:12:34.714Z,0
2017-04-14T01:13:34.368Z,0
2017-04-14T01:14:34.455Z,0
2017-04-14T01:15:34.792Z,0
2017-04-14T01:16:34.820Z,0
2017-04-14T01:17:34.537Z,0
2017-04-14T01:18:34.813Z,0
2017-04-14T01:19:34.946Z,0
2017-04-14T01:20:34.016Z,0
2017-04-14T01:21:34.952Z,0
2017-04-14T01:22:34.982Z,0
2017-04-14T01:23:34.945Z,0
2017-04-14T01:24:34.719Z,0
2017-04-14T01:25:34.755Z,0
2017-04-14T01:26:35.083Z,0
2017-04-14T01:27:34.494Z,0
2017-04-14T01:28:34.457Z,0
2017-04-14T01:29:35.174Z,0
2017-04-14T01:30:34.887Z,0
2017-04-14T01:31:34.915Z,0
2017-04-14T01:32:35.258Z,0
2017-04-14T01:33:35.220Z,0
2017-04-14T01:34:34.991Z,0
2017-04-14T01:35:35.343Z,0
2017-04-14T01:36:35.052Z,0
2017-04-14T01:37:34.765Z,0
2017-04-14T01:38:35.665Z,0
2017-04-14T01:39:34.822Z,0
2017-04-14T01:40:35.482Z,0
2017-04-14T01:41:35.183Z,0
2017-04-14T01:42:35.574Z,0
2017-04-14T01:43:34.877Z,0
2017-04-14T01:44:35.583Z,0
2017-04-14T01:45:35.610Z,0
2017-04-14T01:46:35.011Z,0
2017-04-14T01:47:35.660Z,0
2017-04-14T01:48:35.316Z,0
2017-04-14T01:49:35.713Z,0
2017-04-14T01:50:35.114Z,0
2017-04-14T01:51:35.761Z,0
2017-04-14T01:52:35.500Z,0
2017-04-14T01:53:35.457Z,0
2017-04-14T01:54:35.849Z,0
2017-04-14T01:55:35.562Z,0
2017-04-14T01:56:35.906Z,0
2017-04-14T01:57:35.936Z,0
2017-04-14T01:58:35.907Z,0
2017-04-14T01:59:35.673Z,0
2017-04-14T02:00:35.696Z,0
2017-04-14T02:01:35.734Z,0
2017-04-14T02:02:36.071Z,0
2017-04-14T02:03:36.037Z,0
2017-04-14T02:04:35.804Z,0
2017-04-14T02:05:36.149Z,0
2017-04-14T02:06:36.169Z,0
2017-04-14T02:07:36.195Z,0
2017-04-14T02:08:36.479Z,0
2017-04-14T02:09:35.635Z,0
2017-04-14T02:10:35.665Z,0
2017-04-14T02:11:36.009Z,0
2017-04-14T02:12:36.346Z,0
2017-04-14T02:13:36.065Z,0
2017-04-14T02:14:36.035Z,0
2017-04-14T02:15:36.109Z,0
2017-04-14T02:16:35.520Z,0
2017-04-14T02:17:36.477Z,0
2017-04-14T02:18:35.882Z,0
2017-04-14T02:19:36.471Z,0
2017-04-14T02:20:36.552Z,0
2017-04-14T02:21:36.273Z,0
2017-04-14T02:22:36.006Z,0
2017-04-14T02:23:36.639Z,0
2017-04-14T02:24:36.303Z,0
2017-04-14T02:25:36.380Z,0
2017-04-14T02:26:36.720Z,0
2017-04-14T02:27:36.749Z,0
2017-04-14T02:28:36.150Z,0
2017-04-14T02:29:36.742Z,0
2017-04-14T02:30:36.516Z,0
2017-04-14T02:31:36.860Z,0
2017-04-14T02:32:36.940Z,0
2017-04-14T02:33:36.602Z,0
2017-04-14T02:34:36.562Z,0
2017-04-14T02:35:36.964Z,0
2017-04-14T02:36:36.672Z,0
2017-04-14T02:37:37.029Z,0
2017-04-14T02:38:36.742Z,0
2017-04-14T02:39:37.014Z,0
2017-04-14T02:40:37.098Z,0
2017-04-14T02:41:37.124Z,0
2017-04-14T02:42:36.837Z,0
2017-04-14T02:43:36.562Z,0
2017-04-14T02:44:36.839Z,0
2017-04-14T02:45:37.236Z,0
2017-04-14T02:46:36.944Z,0
2017-04-14T02:47:36.717Z,0
2017-04-14T02:48:37.315Z,0
2017-04-14T02:49:37.590Z,0
2017-04-14T02:50:37.061Z,0
2017-04-14T02:51:36.147Z,0
2017-04-14T02:52:37.429Z,0
2017-04-14T02:53:36.832Z,0
2017-04-14T02:54:37.422Z,0
2017-04-14T02:55:37.507Z,0
2017-04-14T02:56:37.539Z,0
2017-04-14T02:57:37.557Z,0
2017-04-14T02:58:36.969Z,0
2017-04-14T02:59:37.554Z,0
2017-04-14T03:00:37.639Z,0
2017-04-14T03:01:37.672Z,0
2017-04-14T03:02:37.697Z,0
2017-04-14T03:03:37.098Z,0
2017-04-14T03:04:37.690Z,0
2017-04-14T03:05:37.154Z,0
2017-04-14T03:06:37.499Z,0
2017-04-14T03:07:36.896Z,0
2017-04-14T03:08:37.249Z,0
2017-04-14T03:09:37.826Z,0
2017-04-14T03:10:37.917Z,0
2017-04-14T03:11:37.002Z,0
2017-04-14T03:12:37.961Z,0
2017-04-14T03:13:37.688Z,0
2017-04-14T03:14:37.974Z,0
2017-04-14T03:15:37.742Z,0
2017-04-14T03:16:38.079Z,0
2017-04-14T03:17:37.474Z,0
2017-04-14T03:18:38.129Z,0
2017-04-14T03:19:38.409Z,0
2017-04-14T03:20:37.861Z,0
2017-04-14T03:21:37.897Z,0
2017-04-14T03:22:38.223Z,0
2017-04-14T03:23:38.268Z,0
2017-04-14T03:24:38.549Z,0
2017-04-14T03:25:38.011Z,0
2017-04-14T03:26:38.334Z,0
2017-04-14T03:27:38.063Z,0
2017-04-14T03:28:38.091Z,0
2017-04-14T03:29:38.052Z,0
2017-04-14T03:30:38.145Z,0
2017-04-14T03:31:38.163Z,0
2017-04-14T03:32:37.880Z,0
2017-04-14T03:33:38.232Z,0
2017-04-14T03:34:38.508Z,0
2017-04-14T03:35:38.289Z,0
2017-04-14T03:36:38.614Z,0
2017-04-14T03:37:38.335Z,0
2017-04-14T03:38:38.679Z,0
2017-04-14T03:39:38.941Z,0
2017-04-14T03:40:38.416Z,0
2017-04-14T03:41:38.752Z,0
2017-04-14T03:42:38.474Z,0
2017-04-14T03:43:38.508Z,0
2017-04-14T03:44:38.147Z,0
2017-04-14T03:45:38.860Z,0
2017-04-14T03:46:38.585Z,0
2017-04-14T03:47:38.918Z,0
2017-04-14T03:48:38.315Z,0
2017-04-14T03:49:38.916Z,0
2017-04-14T03:50:38.693Z,0
2017-04-14T03:51:38.401Z,0
2017-04-14T03:52:38.422Z,0
2017-04-14T03:53:38.766Z,0
2017-04-14T03:54:39.044Z,0
2017-04-14T03:55:38.828Z,0
2017-04-14T03:56:38.889Z,0
2017-04-14T03:57:39.188Z,0
2017-04-14T03:58:38.899Z,0
2017-04-14T03:59:39.176Z,0
2017-04-14T04:00:38.964Z,0
2017-04-14T04:01:39.304Z,0
2017-04-14T04:02:39.006Z,0
2017-04-14T04:03:39.042Z,0
2017-04-14T04:04:39.633Z,0
2017-04-14T04:05:39.092Z,0
2017-04-14T04:06:39.113Z,0
2017-04-14T04:07:39.142Z,0
2017-04-14T04:08:39.482Z,0
2017-04-14T04:09:39.762Z,0
2017-04-14T04:10:39.539Z,0
2017-04-14T04:11:38.935Z,0
2017-04-14T04:12:38.977Z,0
2017-04-14T04:13:38.983Z,0
2017-04-14T04:14:39.901Z,0
2017-04-14T04:15:39.689Z,0
2017-04-14T04:16:39.087Z,0
2017-04-14T04:17:39.405Z,0
2017-04-14T04:18:39.450Z,0
2017-04-14T04:19:40.070Z,0
2017-04-14T04:20:39.491Z,0
2017-04-14T04:21:39.520Z,0
2017-04-14T04:22:39.552Z,0
2017-04-14T04:23:39.878Z,0
2017-04-14T04:24:39.845Z,0
2017-04-14T04:25:39.634Z,0
2017-04-14T04:26:39.391Z,0
2017-04-14T04:27:39.995Z,0
2017-04-14T04:28:39.711Z,0
2017-04-14T04:29:40.296Z,0
2017-04-14T04:30:39.763Z,0
2017-04-14T04:31:39.790Z,0
2017-04-14T04:32:40.165Z,0
2017-04-14T04:33:39.553Z,0
2017-04-14T04:34:39.865Z,0
2017-04-14T04:35:39.836Z,0
2017-04-14T04:36:39.921Z,0
2017-04-14T04:37:40.264Z,0
2017-04-14T04:38:40.289Z,0
2017-04-14T04:39:40.018Z,0
2017-04-14T04:40:40.290Z,0
2017-04-14T04:41:39.750Z,0
2017-04-14T04:42:39.462Z,0
2017-04-14T04:43:39.811Z,0
2017-04-14T04:44:39.841Z,0
2017-04-14T04:45:40.739Z,0
2017-04-14T04:46:39.884Z,0
2017-04-14T04:47:40.227Z,0
2017-04-14T04:48:40.252Z,0
2017-04-14T04:49:40.273Z,0
2017-04-14T04:50:40.877Z,0
2017-04-14T04:51:40.642Z,0
2017-04-14T04:52:40.351Z,0
2017-04-14T04:53:40.394Z,0
2017-04-14T04:54:40.413Z,0
2017-04-14T04:55:40.689Z,0
2017-04-14T04:56:40.787Z,0
2017-04-14T04:57:40.495Z,0
2017-04-14T04:58:40.213Z,0
2017-04-14T04:59:40.228Z,0
2017-04-14T05:00:41.138Z,0
2017-04-14T05:01:40.911Z,0
2017-04-14T05:02:40.635Z,0
2017-04-14T05:03:40.651Z,0
2017-04-14T05:04:40.684Z,0
2017-04-14T05:05:40.957Z,0
2017-04-14T05:06:41.050Z,0
2017-04-14T05:07:41.079Z,0
2017-04-14T05:08:41.115Z,0
2017-04-14T05:09:41.128Z,0
2017-04-14T05:10:41.136Z,0
2017-04-14T05:11:41.187Z,0
2017-04-14T05:12:41.213Z,0
2017-04-14T05:13:41.242Z,0
2017-04-14T05:14:41.260Z,0
2017-04-14T05:15:41.241Z,0
2017-04-14T05:16:40.389Z,0
2017-04-14T05:17:41.345Z,0
2017-04-14T05:18:41.063Z,0
2017-04-14T05:19:41.088Z,0
2017-04-14T05:20:41.360Z,0
2017-04-14T05:21:41.136Z,0
2017-04-14T05:22:41.485Z,0
2017-04-14T05:23:41.209Z,0
2017-04-14T05:24:40.911Z,0
2017-04-14T05:25:41.508Z,0
2017-04-14T05:26:41.598Z,0
2017-04-14T05:27:41.622Z,0
2017-04-14T05:28:41.655Z,0
2017-04-14T05:29:41.664Z,0
2017-04-14T05:30:41.629Z,0
2017-04-14T05:31:41.713Z,0
2017-04-14T05:32:41.751Z,0
2017-04-14T05:33:41.479Z,5
2017-04-14T05:34:41.492Z,0
2017-04-14T05:35:41.780Z,5
2017-04-14T05:36:41.853Z,5
2017-04-14T05:37:41.578Z,5
2017-04-14T05:38:41.606Z,5
2017-04-14T05:39:41.955Z,5
2017-04-14T05:40:42.212Z,5
2017-04-14T05:41:41.373Z,5
2017-04-14T05:42:41.722Z,5
2017-04-14T05:43:41.751Z,5
2017-04-14T05:44:41.459Z,5
2017-04-14T05:45:41.732Z,5
2017-04-14T05:46:42.128Z,5
2017-04-14T05:47:41.565Z,5
2017-04-14T05:48:41.570Z,5
2017-04-14T05:49:41.907Z,5
2017-04-14T05:50:41.865Z,5
2017-04-14T05:51:41.958Z,5
2017-04-14T05:52:41.369Z,5
2017-04-14T05:53:42.025Z,5
2017-04-14T05:54:41.718Z,5
2017-04-14T05:55:42.327Z,5
2017-04-14T05:56:42.104Z,5
2017-04-14T05:57:42.141Z,5
2017-04-14T05:58:42.188Z,5
2017-04-14T05:59:42.178Z,5
2017-04-14T06:00:42.767Z,5
2017-04-14T06:01:42.540Z,5
2017-04-14T06:02:42.568Z,5
2017-04-14T06:03:42.598Z,5
2017-04-14T06:04:41.995Z,5
2017-04-14T06:05:42.907Z,5
2017-04-14T06:06:42.372Z,5
2017-04-14T06:07:42.400Z,5
2017-04-14T06:08:42.114Z,5
2017-04-14T06:09:42.453Z,10
2017-04-14T06:10:42.166Z,10
2017-04-14T06:11:42.451Z,10
2017-04-14T06:12:41.913Z,10
2017-04-14T06:13:42.241Z,10
2017-04-14T06:14:42.590Z,10
2017-04-14T06:15:42.614Z,10
2017-04-14T06:16:42.891Z,10
2017-04-14T06:17:42.988Z,10
2017-04-14T06:18:43.017Z,10
2017-04-14T06:19:42.722Z,10
2017-04-14T06:20:42.446Z,10
2017-04-14T06:21:43.332Z,15
2017-04-14T06:22:43.124Z,15
2017-04-14T06:23:43.174Z,15
2017-04-14T06:24:42.871Z,15
2017-04-14T06:25:42.262Z,15
2017-04-14T06:26:42.851Z,10
2017-04-14T06:27:43.318Z,10
2017-04-14T06:28:42.660Z,10
2017-04-14T06:29:43.312Z,10
2017-04-14T06:30:43.045Z,15
2017-04-14T06:31:43.306Z,15
2017-04-14T06:32:43.404Z,15
2017-04-14T06:33:42.808Z,10
2017-04-14T06:34:43.143Z,10
2017-04-14T06:35:43.482Z,10
2017-04-14T06:36:43.450Z,10
2017-04-14T06:37:43.531Z,15
2017-04-14T06:38:43.568Z,15
2017-04-14T06:39:43.588Z,20
2017-04-14T06:40:43.619Z,20
2017-04-14T06:41:43.899Z,20
2017-04-14T06:42:43.048Z,15
2017-04-14T06:43:43.720Z,15
2017-04-14T06:44:43.416Z,15
2017-04-14T06:45:43.433Z,15
2017-04-14T06:46:43.721Z,15
2017-04-14T06:47:43.487Z,15
2017-04-14T06:48:43.527Z,15
2017-04-14T06:49:43.869Z,15
2017-04-14T06:50:43.265Z,15
2017-04-14T06:51:44.208Z,15
2017-04-14T06:52:43.643Z,15
2017-04-14T06:53:43.397Z,15
2017-04-14T06:54:43.381Z,15
2017-04-14T06:55:44.033Z,15
2017-04-14T06:56:44.005Z,15
2017-04-14T06:57:43.771Z,10
2017-04-14T06:58:44.122Z,10
2017-04-14T06:59:44.145Z,10
2017-04-14T07:00:44.161Z,15
2017-04-14T07:01:44.133Z,15
2017-04-14T07:02:43.911Z,15
2017-04-14T07:03:43.932Z,15
2017-04-14T07:04:43.964Z,15
2017-04-14T07:05:43.684Z,15
2017-04-14T07:06:43.957Z,15
2017-04-14T07:07:44.093Z,15
2017-04-14T07:08:44.393Z,15
2017-04-14T07:09:43.800Z,15
2017-04-14T07:10:44.129Z,15
2017-04-14T07:11:44.408Z,15
2017-04-14T07:12:44.201Z,20
2017-04-14T07:13:44.223Z,20
2017-04-14T07:14:43.932Z,25
2017-04-14T07:15:43.961Z,25
2017-04-14T07:16:44.549Z,25
2017-04-14T07:17:44.337Z,25
2017-04-14T07:18:44.042Z,25
2017-04-14T07:19:44.066Z,20
2017-04-14T07:20:44.734Z,20
2017-04-14T07:21:44.065Z,20
2017-04-14T07:22:44.464Z,20
2017-04-14T07:23:44.807Z,20
2017-04-14T07:24:44.828Z,25
2017-04-14T07:25:44.595Z,25
2017-04-14T07:26:44.874Z,30
2017-04-14T07:27:44.921Z,30
2017-04-14T07:28:44.325Z,30
2017-04-14T07:29:44.658Z,30
2017-04-14T07:30:44.683Z,30
2017-04-14T07:31:45.277Z,25
2017-04-14T07:32:45.046Z,25
2017-04-14T07:33:45.082Z,25
2017-04-14T07:34:45.111Z,25
2017-04-14T07:35:45.139Z,25
2017-04-14T07:36:45.107Z,20
2017-04-14T07:37:44.605Z,20
2017-04-14T07:38:45.225Z,15
2017-04-14T07:39:44.608Z,15
2017-04-14T07:40:45.276Z,15
2017-04-14T07:41:44.607Z,15
2017-04-14T07:42:45.013Z,20
2017-04-14T07:43:45.365Z,20
2017-04-14T07:44:45.078Z,25
2017-04-14T07:45:45.119Z,25
2017-04-14T07:46:45.695Z,25
2017-04-14T07:47:45.189Z,25
2017-04-14T07:48:45.221Z,25
2017-04-14T07:49:44.598Z,25
2017-04-14T07:50:45.567Z,25
2017-04-14T07:51:45.268Z,40
2017-04-14T07:52:45.257Z,50
2017-04-14T07:53:45.628Z,30
2017-04-14T07:54:45.669Z,35
2017-04-14T07:55:45.071Z,35
2017-04-14T07:56:45.410Z,30
2017-04-14T07:57:45.999Z,25
2017-04-14T07:58:45.465Z,20
2017-04-14T07:59:45.805Z,20
2017-04-14T08:00:45.829Z,45
2017-04-14T08:01:45.868Z,20
2017-04-14T08:02:45.828Z,45
2017-04-14T08:03:45.298Z,35
2017-04-14T08:04:45.622Z,35
2017-04-14T08:05:45.967Z,40
2017-04-14T08:06:45.692Z,35
2017-04-14T08:07:46.276Z,30
2017-04-14T08:08:45.748Z,30
2017-04-14T08:09:45.768Z,30
2017-04-14T08:10:45.470Z,30
2017-04-14T08:11:45.515Z,30
2017-04-14T08:12:46.111Z,35
2017-04-14T08:13:45.885Z,30
2017-04-14T08:14:45.285Z,30
2017-04-14T08:15:45.926Z,35
2017-04-14T08:16:46.275Z,35
2017-04-14T08:17:45.935Z,30
2017-04-14T08:18:46.337Z,25
2017-04-14T08:19:46.365Z,25
2017-04-14T08:20:46.078Z,25
2017-04-14T08:21:45.483Z,25
2017-04-14T08:22:46.703Z,25
2017-04-14T08:23:46.496Z,25
2017-04-14T08:24:46.486Z,25
2017-04-14T08:25:46.530Z,25
2017-04-14T08:26:46.556Z,20
2017-04-14T08:27:46.894Z,20
2017-04-14T08:28:46.321Z,25
2017-04-14T08:29:46.334Z,25
2017-04-14T08:30:46.660Z,25
2017-04-14T08:31:46.405Z,25
2017-04-14T08:32:46.663Z,25
2017-04-14T08:33:46.757Z,25
2017-04-14T08:34:46.776Z,25
2017-04-14T08:35:46.481Z,25
2017-04-14T08:36:46.534Z,25
2017-04-14T08:37:46.810Z,25
2017-04-14T08:38:46.587Z,25
2017-04-14T08:39:46.932Z,30
2017-04-14T08:40:46.943Z,30
2017-04-14T08:41:46.678Z,25
2017-04-14T08:42:46.942Z,30
2017-04-14T08:43:46.417Z,45
2017-04-14T08:44:46.439Z,50
2017-04-14T08:45:46.153Z,45
2017-04-14T08:46:46.815Z,50
2017-04-14T08:47:47.394Z,50
2017-04-14T08:48:46.863Z,45
2017-04-14T08:49:46.581Z,45
2017-04-14T08:50:47.233Z,45
2017-04-14T08:51:46.633Z,50
2017-04-14T08:52:47.218Z,50
2017-04-14T08:53:47.320Z,45
2017-04-14T08:54:47.024Z,50
2017-04-14T08:55:47.368Z,35
2017-04-14T08:56:47.386Z,35
2017-04-14T08:57:47.058Z,35
2017-04-14T08:58:47.453Z,30
2017-04-14T08:59:47.479Z,30
2017-04-14T09:00:46.936Z,40
2017-04-14T09:01:47.225Z,45
2017-04-14T09:02:47.820Z,50
2017-04-14T09:03:47.278Z,45
2017-04-14T09:04:47.316Z,55
2017-04-14T09:05:47.336Z,35
2017-04-14T09:06:47.368Z,30
2017-04-14T09:07:47.649Z,35
2017-04-14T09:08:47.734Z,40
2017-04-14T09:09:47.755Z,35
2017-04-14T09:10:47.784Z,40
2017-04-14T09:11:47.841Z,45
2017-04-14T09:12:47.229Z,45
2017-04-14T09:13:47.835Z,45
2017-04-14T09:14:47.274Z,45
2017-04-14T09:15:47.952Z,40
2017-04-14T09:16:47.332Z,35
2017-04-14T09:17:47.688Z,35
2017-04-14T09:18:48.276Z,40
2017-04-14T09:19:47.418Z,35
2017-04-14T09:20:47.763Z,30
2017-04-14T09:21:47.476Z,35
2017-04-14T09:22:48.125Z,35
2017-04-14T09:23:47.481Z,40
2017-04-14T09:24:47.551Z,40
2017-04-14T09:25:47.588Z,40
2017-04-14T09:26:47.935Z,35
2017-04-14T09:27:47.972Z,35
2017-04-14T09:28:48.546Z,30
2017-04-14T09:29:48.018Z,30
2017-04-14T09:30:48.052Z,45
2017-04-14T09:31:48.380Z,45
2017-04-14T09:32:48.417Z,40
2017-04-14T09:33:48.387Z,40
2017-04-14T09:34:48.146Z,45
2017-04-14T09:35:48.166Z,50
2017-04-14T09:36:48.214Z,50
2017-04-14T09:37:47.932Z,50
2017-04-14T09:38:48.845Z,45
2017-04-14T09:39:48.309Z,40
2017-04-14T09:40:48.638Z,35
2017-04-14T09:41:48.347Z,35
2017-04-14T09:42:48.377Z,35
2017-04-14T09:43:48.965Z,40
2017-04-14T09:44:48.749Z,40
2017-04-14T09:45:48.489Z,50
2017-04-14T09:46:48.803Z,45
2017-04-14T09:47:48.841Z,40
2017-04-14T09:48:48.812Z,40
2017-04-14T09:49:48.265Z,40
2017-04-14T09:50:48.923Z,40
2017-04-14T09:51:48.942Z,40
2017-04-14T09:52:48.671Z,40
2017-04-14T09:53:48.941Z,40
2017-04-14T09:54:48.408Z,40
2017-04-14T09:55:49.062Z,40
2017-04-14T09:56:48.783Z,35
2017-04-14T09:57:48.815Z,35
2017-04-14T09:58:48.769Z,35
2017-04-14T09:59:48.857Z,40
2017-04-14T10:00:49.198Z,45
2017-04-14T10:01:48.917Z,45
2017-04-14T10:02:48.955Z,40
2017-04-14T10:03:49.228Z,40
2017-04-14T10:04:49.309Z,30
2017-04-14T10:05:49.341Z,30
2017-04-14T10:06:49.062Z,30
2017-04-14T10:07:49.396Z,35
2017-04-14T10:08:49.376Z,45
2017-04-14T10:09:49.500Z,35
2017-04-14T10:10:49.187Z,40
2017-04-14T10:11:49.510Z,30
2017-04-14T10:12:49.534Z,30
2017-04-14T10:13:49.499Z,40
2017-04-14T10:14:49.597Z,45
2017-04-14T10:15:49.356Z,45
2017-04-14T10:16:49.351Z,40
2017-04-14T10:17:49.051Z,45
2017-04-14T10:18:49.694Z,45
2017-04-14T10:19:49.428Z,45
2017-04-14T10:20:49.768Z,45
2017-04-14T10:21:49.786Z,45
2017-04-14T10:22:49.822Z,45
2017-04-14T10:23:50.138Z,45
2017-04-14T10:24:49.571Z,50
2017-04-14T10:25:49.901Z,55
2017-04-14T10:26:49.941Z,60
2017-04-14T10:27:49.959Z,60
2017-04-14T10:28:50.007Z,60
2017-04-14T10:29:50.020Z,55
2017-04-14T10:30:49.747Z,55
2017-04-14T10:31:49.768Z,60
2017-04-14T10:32:50.102Z,65
2017-04-14T10:33:49.762Z,60
2017-04-14T10:34:49.852Z,55
2017-04-14T10:35:49.555Z,55
2017-04-14T10:36:49.909Z,55
2017-04-14T10:37:50.242Z,55
2017-04-14T10:38:50.221Z,55
2017-04-14T10:39:50.298Z,55
2017-04-14T10:40:50.015Z,55
2017-04-14T10:41:50.359Z,50
2017-04-14T10:42:50.074Z,55
2017-04-14T10:43:50.069Z,60
2017-04-14T10:44:50.135Z,60
2017-04-14T10:45:50.159Z,60
2017-04-14T10:46:50.186Z,60
2017-04-14T10:47:50.520Z,60
2017-04-14T10:48:50.501Z,50
2017-04-14T10:49:50.587Z,60
2017-04-14T10:50:50.607Z,60
2017-04-14T10:51:50.326Z,65
2017-04-14T10:52:50.033Z,65
2017-04-14T10:53:50.381Z,65
2017-04-14T10:54:50.974Z,40
2017-04-14T10:55:50.432Z,35
2017-04-14T10:56:50.153Z,45
2017-04-14T10:57:50.501Z,50
2017-04-14T10:58:50.530Z,50
2017-04-14T10:59:51.106Z,50
2017-04-14T11:00:50.582Z,50
2017-04-14T11:01:50.916Z,55
2017-04-14T11:02:50.694Z,70
2017-04-14T11:03:50.353Z,75
2017-04-14T11:04:50.945Z,80
2017-04-14T11:05:50.103Z,85
2017-04-14T11:06:51.055Z,80
2017-04-14T11:07:50.772Z,80
2017-04-14T11:08:50.501Z,90
2017-04-14T11:09:50.773Z,95
2017-04-14T11:10:51.183Z,80
2017-04-14T11:11:50.886Z,100
2017-04-14T11:12:51.249Z,95
2017-04-14T11:13:50.653Z,55
2017-04-14T11:14:51.262Z,50
2017-04-14T11:15:50.697Z,65
2017-04-14T11:16:51.347Z,130
2017-04-14T11:17:50.752Z,75
2017-04-14T11:18:51.097Z,95
2017-04-14T11:19:51.365Z,140
2017-04-14T11:20:51.147Z,155
2017-04-14T11:21:51.503Z,105
2017-04-14T11:22:51.525Z,145
2017-04-14T11:23:50.924Z,65
2017-04-14T11:24:51.565Z,120
2017-04-14T11:25:51.602Z,60
2017-04-14T11:26:51.015Z,80
2017-04-14T11:27:51.045Z,135
2017-04-14T11:28:51.380Z,145
2017-04-14T11:29:51.969Z,155
2017-04-14T11:30:51.434Z,140
2017-04-14T11:31:51.166Z,125
2017-04-14T11:32:51.189Z,170
2017-04-14T11:33:51.225Z,120
2017-04-14T11:34:51.496Z,90
2017-04-14T11:35:51.896Z,80
2017-04-14T11:36:51.622Z,70
2017-04-14T11:37:51.951Z,55
2017-04-14T11:38:51.671Z,45
2017-04-14T11:39:52.251Z,40
2017-04-14T11:40:51.725Z,50
2017-04-14T11:41:51.442Z,55
2017-04-14T11:42:51.792Z,70
2017-04-14T11:43:51.832Z,275
2017-04-14T11:44:52.089Z,275
2017-04-14T11:45:52.192Z,240
2017-04-14T11:46:51.585Z,235
2017-04-14T11:47:51.926Z,260
2017-04-14T11:48:52.268Z,275
2017-04-14T11:49:52.552Z,225
2017-04-14T11:50:52.017Z,90
2017-04-14T11:51:52.354Z,210
2017-04-14T11:52:52.386Z,60
2017-04-14T11:53:52.413Z,60
2017-04-14T11:54:52.395Z,70
2017-04-14T11:55:51.847Z,255
2017-04-14T11:56:51.890Z,45
2017-04-14T11:57:52.535Z,50
2017-04-14T11:58:52.559Z,60
2017-04-14T11:59:52.843Z,90
2017-04-14T12:00:52.616Z,115
2017-04-14T12:01:52.337Z,230
2017-04-14T12:02:52.082Z,90
2017-04-14T12:03:52.715Z,80
2017-04-14T12:04:52.675Z,85
2017-04-14T12:05:52.456Z,90
2017-04-14T12:06:52.789Z,90
2017-04-14T12:07:51.892Z,215
2017-04-14T12:08:52.256Z,85
2017-04-14T12:09:52.516Z,105
2017-04-14T12:10:52.292Z,75
2017-04-14T12:11:52.632Z,100
2017-04-14T12:12:52.666Z,265
2017-04-14T12:13:52.373Z,165
2017-04-14T12:14:52.975Z,95
2017-04-14T12:15:52.119Z,90
2017-04-14T12:16:53.093Z,195
2017-04-14T12:17:52.799Z,240
2017-04-14T12:18:53.149Z,240
2017-04-14T12:19:53.115Z,70
2017-04-14T12:20:52.902Z,130
2017-04-14T12:21:53.244Z,220
2017-04-14T12:22:52.953Z,135
2017-04-14T12:23:52.705Z,100
2017-04-14T12:24:53.269Z,100
2017-04-14T12:25:53.038Z,80
2017-04-14T12:26:53.387Z,75
2017-04-14T12:27:52.781Z,80
2017-04-14T12:28:52.830Z,80
2017-04-14T12:29:53.723Z,80
2017-04-14T12:30:53.505Z,80
2017-04-14T12:31:53.220Z,75
2017-04-14T12:32:53.582Z,70
2017-04-14T12:33:53.602Z,60
2017-04-14T12:34:53.882Z,50
2017-04-14T12:35:53.035Z,40
2017-04-14T12:36:53.691Z,45
2017-04-14T12:37:53.761Z,45
2017-04-14T12:38:53.190Z,45
2017-04-14T12:39:53.157Z,55
2017-04-14T12:40:54.066Z,65
2017-04-14T12:41:53.212Z,60
2017-04-14T12:42:53.621Z,65
2017-04-14T12:43:53.902Z,70
2017-04-14T12:44:53.926Z,90
2017-04-14T12:45:53.579Z,150
2017-04-14T12:46:53.675Z,75
2017-04-14T12:47:54.020Z,65
2017-04-14T12:48:53.732Z,75
2017-04-14T12:49:54.081Z,100
2017-04-14T12:50:54.350Z,185
2017-04-14T12:51:54.178Z,95
2017-04-14T12:52:53.855Z,95
2017-04-14T12:53:54.196Z,80
2017-04-14T12:54:53.913Z,70
2017-04-14T12:55:54.192Z,60
2017-04-14T12:56:53.963Z,50
2017-04-14T12:57:54.320Z,40
2017-04-14T12:58:54.348Z,35
2017-04-14T12:59:54.057Z,35
2017-04-14T13:00:54.341Z,35
2017-04-14T13:01:54.119Z,35
2017-04-14T13:02:54.456Z,40
2017-04-14T13:03:53.586Z,35
2017-04-14T13:04:54.217Z,35
2017-04-14T13:05:54.178Z,40
2017-04-14T13:06:53.957Z,30
2017-04-14T13:07:53.675Z,25
2017-04-14T13:08:54.032Z,30
2017-04-14T13:09:54.049Z,35
2017-04-14T13:10:54.949Z,60
2017-04-14T13:11:54.722Z,75
2017-04-14T13:12:54.758Z,60
2017-04-14T13:13:54.167Z,50
2017-04-14T13:14:54.819Z,55
2017-04-14T13:15:54.784Z,65
2017-04-14T13:16:53.942Z,65
2017-04-14T13:17:54.900Z,80
2017-04-14T13:18:54.947Z,90
2017-04-14T13:19:54.645Z,85
2017-04-14T13:20:54.936Z,90
2017-04-14T13:21:54.706Z,85
2017-04-14T13:22:54.755Z,65
2017-04-14T13:23:55.081Z,65
2017-04-14T13:24:55.100Z,70
2017-04-14T13:25:55.388Z,70
2017-04-14T13:26:54.858Z,75
2017-04-14T13:27:55.190Z,145
2017-04-14T13:28:54.919Z,100
2017-04-14T13:29:54.631Z,85
2017-04-14T13:30:55.530Z,70
2017-04-14T13:31:55.002Z,70
2017-04-14T13:32:55.382Z,55
2017-04-14T13:33:55.310Z,55
2017-04-14T13:34:55.156Z,55
2017-04-14T13:35:55.368Z,55
2017-04-14T13:36:55.441Z,50
2017-04-14T13:37:55.181Z,50
2017-04-14T13:38:55.519Z,60
2017-04-14T13:39:55.539Z,70
2017-04-14T13:40:55.501Z,160
2017-04-14T13:41:55.610Z,165
2017-04-14T13:42:55.642Z,155
2017-04-14T13:43:55.352Z,125
2017-04-14T13:44:55.692Z,130
2017-04-14T13:45:55.980Z,125
2017-04-14T13:46:55.432Z,130
2017-04-14T13:47:55.789Z,135
2017-04-14T13:48:55.791Z,145
2017-04-14T13:49:55.846Z,145
2017-04-14T13:50:55.494Z,155
2017-04-14T13:51:55.900Z,155
2017-04-14T13:52:55.930Z,140
2017-04-14T13:53:55.954Z,130
2017-04-14T13:54:56.000Z,125
2017-04-14T13:55:55.954Z,120
2017-04-14T13:56:56.052Z,125
2017-04-14T13:57:56.086Z,130
2017-04-14T13:58:55.801Z,130
2017-04-14T13:59:55.511Z,125
2017-04-14T14:00:56.414Z,125
2017-04-14T14:01:55.573Z,130
2017-04-14T14:02:55.605Z,130
2017-04-14T14:03:56.257Z,90
2017-04-14T14:04:55.359Z,50
2017-04-14T14:05:56.263Z,55
2017-04-14T14:06:55.735Z,60
2017-04-14T14:07:56.085Z,70
2017-04-14T14:08:56.426Z,60
2017-04-14T14:09:56.166Z,65
2017-04-14T14:10:56.723Z,70
2017-04-14T14:11:56.180Z,120
2017-04-14T14:12:56.543Z,135
2017-04-14T14:13:56.257Z,155
2017-04-14T14:14:56.294Z,150
2017-04-14T14:15:56.566Z,85
2017-04-14T14:16:56.047Z,105
2017-04-14T14:17:56.074Z,155
2017-04-14T14:18:56.102Z,155
2017-04-14T14:19:56.749Z,140
2017-04-14T14:20:56.414Z,125
2017-04-14T14:21:56.499Z,110
2017-04-14T14:22:56.841Z,105
2017-04-14T14:23:55.933Z,105
2017-04-14T14:24:56.905Z,105
2017-04-14T14:25:57.191Z,105